aviador You're here:

RJBB Decoded Metar

KANSAI INTL in JAPAN
Report Time2017-12-16 14:30:00
UTC Time2017-12-16 14:45:26
Flight Rules vfr VFR
Wind290° at 24 Gusting to 36 kt
W.Decomp.*RWY 24: 13.1 kt HW 20.1 kt RCW
W.Rank290° ranks 1
Current wind is above 290° avg. (9.7)
Visibility9999 m
Phenomena:N/A
Clouds:Few 047 Hf
Overcast 090 Hf
Expected CloudBase > 4,400 ft AGL from Temp-Dew spread
Ceiling9,000 ft
Temp06°C (ISA -9)
Dew Point-5°C (46% RH)
AAT-5.2°C
QNH1019 hPa
Density Alt-1,198 ft
Elevation26 ft
Report Wrong Elevation
Raw Report
METAR RJBB 161430Z AUTO 29024G36KT 9999 FEW047 OVC090 06/M05 Q1019
NOSIG=

Extra information for RJBB:More info

Metar Taf Metar & Taf Last 4 Metars F.Rules Stats Wind Profile Meteogram Temp Stats Airport Information Weather charts Add Link Nearby VenuesMetar ALERT Operation Metar Decoded Social comments